METAR ET TAF INFORMATION
METAR FOR ENHF
ADDS - METARS form results

(0547 UTC 16 October 2019)
Data provider http://aviationweather.gov/metar/data/
 
METAR text: ENHF 160520Z 00000KT 9999 FEW020 BKN038 00/M03 Q1017 RMK WIND 1254FT 20005KT
Conditions at: ENHF (HAMMERFEST , NO) observed 0520 UTC 16 October 2019
Temperature: 0.0°C (32°F)
Dewpoint: -3.0°C (27°F) [RH = 80%]
Pressure (altimeter): 30.03 inches Hg (1017.0 mb)
Winds: calm
Visibility: 6 or more miles (10+ km)
Ceiling: 3800 feet AGL
Clouds: few clouds at 2000 feet AGL
broken clouds at 3800 feet AGL
Weather: no significant weather observed at this time

METAR text: ENHF 160450Z 00000KT 9999 BKN038 00/M03 Q1017 RMK WIND 1254FT 21006KT
Conditions at: ENHF (HAMMERFEST , NO) observed 0450 UTC 16 October 2019
Temperature: 0.0°C (32°F)
Dewpoint: -3.0°C (27°F) [RH = 80%]
Pressure (altimeter): 30.03 inches Hg (1017.0 mb)
Winds: calm
Visibility: 6 or more miles (10+ km)
Ceiling: 3800 feet AGL
Clouds: broken clouds at 3800 feet AGL
Weather: no significant weather observed at this time

Forecast for: ENHF (HAMMERFEST , NO)
Text: TAF ENHF 160500Z 1606/1615 19005KT 9999 BKN030
Forecast period: 0600 to 1500 UTC 16 October 2019
Forecast type: FROM: standard forecast or significant change
Winds: from the S (190 degrees) at 6 MPH (5 knots; 2.6 m/s)
Visibility: 6 or more miles 10+ km)
Ceiling: 3000 feet AGL
Clouds: broken clouds at 3000 feet AGL
Weather: no significant weather forecast for this period
Text: PROB40
Forecast period: 0700 to 1200 UTC 16 October 2019
Forecast type: TEMPORARY: The following changes expected for less than half the time period
Visibility: 2.49 miles (4.01 km)
Ceiling: 900 feet AGL
Clouds: overcast cloud deck at 900 feet AGL
Weather: -SHRA -SHSN  (light rain showers, light snow showers)

 AÉROPORT DE AÉROPORT

 INFORMATIONS DE PISTE
Piste 05 Longueur de la piste 2894 ft Largeur de la piste 0 ft
Élévation de la piste 259 ft Seuil de la piste déplacés 0 ft Runway heading 0
Piste 23 Longueur de la piste 2894 ft Largeur de la piste 0 ft
Élévation de la piste 260 ft Seuil de la piste déplacés 0 ft Runway heading 0

 AÉROPORT FRÉQUENCES

 SIDA DE NAVIGATION
Type VOR-DME Nom Hammerfest Féquence 112400 KHZ



Powered by Virtual Airlines Manager [v2.6.2]